Time;durP1;ratioP1;P1;durP2;ratioP2;P2;SDS_P1;SDS_P2;PMS_P1;PMS_P2;Temp;Humidity;BMP_temperature;BMP_pressure;BME280_temperature;BME280_humidity;BME280_pressure;Samples;Min_cycle;Max_cycle;Signal;HPM_P1;HPM_P2
2023/01/03 05:25:51;;;;;;;2.60;1.45;;;;;;;4.41;100.00;101497.50;5046263;28;20056;-66
2023/01/03 05:28:18;;;;;;;1.35;1.08;;;;;;;4.36;100.00;101503.06;5046136;28;20172;-68
2023/01/03 05:30:44;;;;;;;6.40;2.20;;;;;;;4.34;100.00;101501.50;5058213;28;20389;-69
2023/01/03 05:33:09;;;;;;;5.78;2.40;;;;;;;4.35;100.00;101503.16;5088882;28;20036;-68
2023/01/03 05:35:34;;;;;;;2.67;1.70;;;;;;;4.35;100.00;101508.44;5088646;28;20037;-69
2023/01/03 05:38:00;;;;;;;5.05;2.08;;;;;;;4.32;100.00;101504.22;5088347;28;20101;-69
2023/01/03 05:40:25;;;;;;;3.88;2.97;;;;;;;4.35;100.00;101503.16;5088632;28;20024;-69
2023/01/03 05:42:51;;;;;;;7.20;3.70;;;;;;;4.39;100.00;101501.19;5088449;28;20124;-68
2023/01/03 05:45:16;;;;;;;5.15;2.60;;;;;;;4.36;100.00;101508.34;5088514;28;20465;-69
2023/01/03 05:47:42;;;;;;;3.80;1.83;;;;;;;4.34;100.00;101509.41;5088225;28;20338;-69
2023/01/03 05:50:07;;;;;;;5.05;2.15;;;;;;;4.48;100.00;101513.75;5104181;28;20047;-69
2023/01/03 05:52:32;;;;;;;3.67;2.65;;;;;;;4.48;100.00;101514.59;5088235;28;20412;-69
2023/01/03 05:54:58;;;;;;;5.00;2.60;;;;;;;4.47;100.00;101522.63;5088376;28;20061;-69
2023/01/03 05:57:23;;;;;;;7.43;3.50;;;;;;;4.57;100.00;101518.44;5087817;28;20043;-68
2023/01/03 05:59:48;;;;;;;6.10;2.45;;;;;;;4.54;100.00;101530.00;5088243;28;20040;-68
2023/01/03 06:02:14;;;;;;;4.25;1.80;;;;;;;4.47;100.00;101517.34;5088237;28;20032;-68
2023/01/03 06:04:39;;;;;;;3.97;1.85;;;;;;;4.39;100.00;101520.50;5088178;28;20047;-68
2023/01/03 06:07:05;;;;;;;2.50;1.33;;;;;;;4.30;100.00;101523.72;5087861;28;20047;-66
2023/01/03 06:09:30;;;;;;;3.65;1.67;;;;;;;4.28;100.00;101515.09;5087636;28;20075;-68
2023/01/03 06:11:56;;;;;;;5.85;1.92;;;;;;;4.23;100.00;101515.38;5088071;28;20070;-68
2023/01/03 06:14:21;;;;;;;4.10;2.22;;;;;;;4.16;100.00;101521.16;5087777;28;20035;-68
2023/01/03 06:19:31;;;;;;;4.13;2.08;;;;;;;4.09;100.00;101523.34;5088025;28;20491;-67
2023/01/03 06:21:56;;;;;;;3.35;2.13;;;;;;;4.00;100.00;101502.88;5087772;28;20132;-68
2023/01/03 06:24:22;;;;;;;3.20;1.83;;;;;;;4.08;100.00;101529.59;5103457;28;20063;-66
2023/01/03 06:26:47;;;;;;;2.38;1.73;;;;;;;4.07;100.00;101530.53;5087670;28;20350;-68
2023/01/03 06:29:12;;;;;;;3.00;1.95;;;;;;;4.07;100.00;101531.38;5087343;28;20126;-67
2023/01/03 06:31:38;;;;;;;3.05;1.90;;;;;;;4.13;100.00;101534.56;5103414;28;20047;-68
2023/01/03 06:34:04;;;;;;;4.63;2.00;;;;;;;4.10;100.00;101532.97;5074171;28;20485;-67
2023/01/03 06:36:33;;;;;;;3.33;2.08;;;;;;;4.06;100.00;101537.59;5074050;28;20489;-69
2023/01/03 06:38:59;;;;;;;5.00;1.55;;;;;;;4.06;100.00;101540.25;5073577;28;20118;-67
2023/01/03 06:41:25;;;;;;;2.75;1.90;;;;;;;4.00;100.00;101532.72;5074031;28;20032;-67
2023/01/03 06:43:50;;;;;;;4.53;1.95;;;;;;;3.93;100.00;101527.97;5073952;28;20157;-69
2023/01/03 06:54:35;;;;;;;4.30;1.77;;;;;;;4.04;100.00;101538.63;5073793;28;20086;-68
2023/01/03 06:57:02;;;;;;;2.97;1.98;;;;;;;4.04;100.00;101536.88;5073446;28;20025;-68
2023/01/03 06:59:28;;;;;;;5.22;2.58;;;;;;;4.06;100.00;101532.34;5073285;28;20500;-68
2023/01/03 07:01:54;;;;;;;6.30;2.50;;;;;;;4.00;100.00;101530.09;5073704;28;20032;-66
2023/01/03 07:04:22;;;;;;;3.10;2.40;;;;;;;4.02;100.00;101535.25;5073650;28;20089;-67
2023/01/03 07:06:47;;;;;;;4.65;2.45;;;;;;;4.03;100.00;101521.97;5072269;28;20032;-67
2023/01/03 07:09:13;;;;;;;7.55;2.85;;;;;;;4.01;100.00;101530.94;5073318;28;20514;-67
2023/01/03 07:11:39;;;;;;;3.47;1.83;;;;;;;4.00;100.00;101535.38;5073431;28;20047;-67
2023/01/03 07:14:07;;;;;;;3.17;2.13;;;;;;;3.99;100.00;101538.94;5073412;28;20037;-67
2023/01/03 07:16:41;;;;;;;4.72;2.53;;;;;;;3.94;100.00;101533.13;5073349;28;20056;-67
2023/01/03 07:19:10;;;;;;;3.67;2.10;;;;;;;4.06;100.00;101553.44;5073048;28;20036;-68
2023/01/03 07:21:37;;;;;;;5.82;2.03;;;;;;;4.07;100.00;101544.56;5073369;28;20120;-68
2023/01/03 07:24:04;;;;;;;6.68;3.28;;;;;;;4.11;100.00;101547.88;5073286;28;20064;-65
2023/01/03 07:26:32;;;;;;;3.30;1.55;;;;;;;4.08;100.00;101548.88;5073128;28;20511;-66
2023/01/03 07:28:58;;;;;;;4.95;2.47;;;;;;;4.08;100.00;101548.03;5072896;28;20131;-65
2023/01/03 07:31:24;;;;;;;2.75;1.52;;;;;;;4.08;100.00;101562.06;5071777;28;20060;-71
2023/01/03 07:33:49;;;;;;;2.50;1.40;;;;;;;4.00;100.00;101564.38;5072995;28;20590;-71
2023/01/03 07:36:15;;;;;;;6.88;2.40;;;;;;;3.93;100.00;101560.44;5072847;28;20032;-71
2023/01/03 07:38:43;;;;;;;9.20;2.00;;;;;;;3.90;100.00;101565.88;5072993;28;20064;-71
2023/01/03 07:41:09;;;;;;;;;;;;;;;3.86;100.00;101564.41;5073424;28;20020;-70
2023/01/03 07:43:37;;;;;;;2.83;1.33;;;;;;;3.82;100.00;101555.00;5072527;28;19913;-70
2023/01/03 07:46:12;;;;;;;11.40;4.72;;;;;;;3.86;100.00;101568.84;5072118;28;20433;-69
2023/01/03 07:48:38;;;;;;;14.52;5.10;;;;;;;3.89;100.00;101569.47;5071761;28;20033;-70
2023/01/03 07:51:05;;;;;;;15.85;5.68;;;;;;;3.91;100.00;101567.59;5072615;28;20055;-70
2023/01/03 07:53:31;;;;;;;4.95;2.35;;;;;;;3.93;100.00;101573.63;5072634;28;20203;-70
2023/01/03 07:56:07;;;;;;;3.00;1.73;;;;;;;3.90;100.00;101578.22;5072416;28;20471;-70
2023/01/03 07:58:33;;;;;;;3.83;2.00;;;;;;;3.93;100.00;101580.69;5072209;28;20036;-70
2023/01/03 08:01:04;;;;;;;4.25;2.67;;;;;;;3.79;100.00;101579.78;5072471;28;20028;-68
2023/01/03 08:03:30;;;;;;;7.00;2.17;;;;;;;3.78;100.00;101575.44;5072582;28;20076;-70
2023/01/03 08:05:59;;;;;;;8.25;2.95;;;;;;;3.75;100.00;101573.00;5072321;28;20060;-70
2023/01/03 08:08:24;;;;;;;6.25;3.28;;;;;;;3.75;100.00;101580.06;5070738;28;20123;-70
2023/01/03 08:13:34;;;;;;;5.03;2.17;;;;;;;3.77;100.00;101589.53;5072352;28;20070;-70
2023/01/03 08:16:00;;;;;;;4.13;1.85;;;;;;;3.82;100.00;101599.81;5072067;28;20119;-71
2023/01/03 08:18:27;;;;;;;7.25;2.92;;;;;;;3.90;100.00;101592.25;5071812;28;20044;-70
2023/01/03 08:20:55;;;;;;;7.00;2.78;;;;;;;3.91;100.00;101599.25;5071928;28;20041;-70
2023/01/03 08:23:22;;;;;;;3.08;1.73;;;;;;;3.98;100.00;101605.81;5072345;28;20430;-68
2023/01/03 08:25:47;;;;;;;4.32;2.22;;;;;;;3.97;100.00;101606.75;5071946;28;20409;-68
2023/01/03 08:28:12;;;;;;;3.92;2.72;;;;;;;3.93;100.00;101605.25;5071691;28;20044;-67
2023/01/03 08:30:41;;;;;;;4.82;2.65;;;;;;;3.96;100.00;101602.41;5071910;28;20105;-68
2023/01/03 08:33:09;;;;;;;3.60;2.28;;;;;;;4.02;100.00;101611.72;5071917;28;20037;-68
2023/01/03 08:35:37;;;;;;;3.78;2.15;;;;;;;4.08;100.00;101617.44;5071803;28;20043;-68
2023/01/03 08:38:05;;;;;;;4.60;2.65;;;;;;;4.14;100.00;101621.50;5071511;28;20305;-67
2023/01/03 08:40:35;;;;;;;5.28;2.83;;;;;;;4.19;100.00;101632.59;5071793;28;20060;-68
2023/01/03 08:43:02;;;;;;;5.70;2.50;;;;;;;4.22;100.00;101628.91;5071741;28;20071;-68
2023/01/03 08:45:27;;;;;;;6.30;2.30;;;;;;;4.24;100.00;101632.31;5071690;28;20056;-69
2023/01/03 08:47:56;;;;;;;4.70;2.50;;;;;;;4.26;100.00;101631.25;5071162;28;20044;-68
2023/01/03 08:50:21;;;;;;;6.43;2.85;;;;;;;4.29;100.00;101631.03;5071552;28;20504;-68
2023/01/03 08:52:47;;;;;;;4.15;2.25;;;;;;;4.36;100.00;101631.50;5072134;28;20072;-68
2023/01/03 08:55:12;;;;;;;4.38;2.78;;;;;;;4.43;100.00;101638.06;5071717;28;20044;-68
2023/01/03 08:57:39;;;;;;;3.63;2.65;;;;;;;4.50;100.00;101638.50;5071271;28;20497;-69
2023/01/03 09:00:05;;;;;;;6.13;2.78;;;;;;;4.57;100.00;101640.66;5071478;28;20052;-68
2023/01/03 09:02:33;;;;;;;4.78;2.97;;;;;;;4.56;100.00;101641.63;5071344;28;20106;-69
2023/01/03 09:04:59;;;;;;;2.65;2.00;;;;;;;4.59;100.00;101649.31;5071627;28;20040;-68
2023/01/03 09:07:25;;;;;;;3.30;2.25;;;;;;;4.63;100.00;101644.72;5071011;28;20116;-68
2023/01/03 09:09:50;;;;;;;3.00;1.98;;;;;;;4.62;100.00;101643.84;5071328;28;20144;-69
2023/01/03 09:12:15;;;;;;;8.15;3.42;;;;;;;4.73;100.00;101648.41;5071300;28;20123;-68
2023/01/03 09:14:41;;;;;;;4.47;2.85;;;;;;;4.63;100.00;101647.34;5071379;28;20089;-68
2023/01/03 09:17:06;;;;;;;4.13;2.63;;;;;;;4.78;100.00;101659.53;5070969;28;20339;-68
2023/01/03 09:19:31;;;;;;;5.90;2.47;;;;;;;4.85;100.00;101659.97;5071189;28;20122;-70
2023/01/03 09:21:57;;;;;;;2.80;2.50;;;;;;;4.86;100.00;101664.28;5071283;28;20036;-70
2023/01/03 09:24:22;;;;;;;5.80;3.13;;;;;;;4.94;100.00;101667.25;5071396;28;20044;-70
2023/01/03 09:26:48;;;;;;;6.97;3.30;;;;;;;5.02;100.00;101670.25;5071088;28;20111;-70
2023/01/03 09:29:13;;;;;;;4.60;2.72;;;;;;;5.15;100.00;101667.59;5070986;28;20447;-70
2023/01/03 09:31:39;;;;;;;7.70;3.55;;;;;;;5.31;100.00;101668.28;5071052;28;20439;-69
2023/01/03 09:34:04;;;;;;;5.15;3.30;;;;;;;5.47;100.00;101673.34;5071060;28;20037;-69
2023/01/03 09:36:30;;;;;;;4.20;2.75;;;;;;;5.86;100.00;101671.50;5071101;28;20036;-70
2023/01/03 09:38:56;;;;;;;4.53;2.60;;;;;;;6.33;100.00;101672.63;5071287;28;20434;-69
2023/01/03 09:41:24;;;;;;;5.30;3.22;;;;;;;6.77;100.00;101682.56;5071183;28;20171;-70
2023/01/03 09:43:56;;;;;;;3.63;2.65;;;;;;;7.19;100.00;101680.31;5071092;28;20041;-70
2023/01/03 09:46:24;;;;;;;6.07;3.88;;;;;;;7.59;100.00;101678.94;5071114;28;20166;-71
2023/01/03 09:48:51;;;;;;;5.47;3.60;;;;;;;8.09;100.00;101671.47;5070975;28;20032;-69
2023/01/03 10:03:42;;;;;;;5.57;3.03;;;;;;;10.07;90.61;101661.00;5070985;28;20078;-71
2023/01/03 10:06:22;;;;;;;8.20;3.40;;;;;;;10.30;89.49;101659.84;5070878;28;20115;-71
2023/01/03 10:09:14;;;;;;;7.75;4.05;;;;;;;10.36;87.54;101658.44;5073217;28;20032;-71
2023/01/03 10:12:04;;;;;;;7.57;3.85;;;;;;;10.96;86.48;101656.53;5074519;28;20440;-70
2023/01/03 10:15:08;;;;;;;5.53;3.47;;;;;;;11.45;82.37;101661.75;5074575;28;20087;-71
2023/01/03 10:17:58;;;;;;;6.60;3.60;;;;;;;11.84;81.27;101657.16;5074055;28;20076;-70
2023/01/03 10:20:44;;;;;;;4.72;2.65;;;;;;;12.48;77.15;101648.22;5074442;28;20055;-70
2023/01/03 10:23:10;;;;;;;6.07;2.83;;;;;;;13.12;73.74;101649.78;5074452;28;20032;-71
2023/01/03 10:25:39;;;;;;;6.63;3.28;;;;;;;13.55;70.80;101648.91;5074123;28;20032;-71
2023/01/03 10:28:14;;;;;;;4.07;2.95;;;;;;;14.15;67.41;101644.50;5073783;28;20124;-71
2023/01/03 10:31:14;;;;;;;8.05;3.35;;;;;;;14.80;64.32;101655.38;5074391;28;20414;-71
2023/01/03 10:33:47;;;;;;;5.93;3.42;;;;;;;14.76;63.73;101648.69;5074603;28;20048;-71
2023/01/03 10:36:15;;;;;;;7.18;3.25;;;;;;;15.13;61.50;101645.50;5073936;28;20089;-70
2023/01/03 10:38:41;;;;;;;5.90;3.50;;;;;;;16.00;59.30;101650.00;5072590;28;20035;-71
2023/01/03 10:41:29;;;;;;;6.50;2.88;;;;;;;16.36;56.24;101641.38;5074140;28;20409;-70
2023/01/03 10:44:00;;;;;;;4.55;2.80;;;;;;;17.14;54.80;101644.88;5074037;28;20043;-69
2023/01/03 10:46:26;;;;;;;3.40;2.38;;;;;;;17.51;53.41;101638.59;5073766;28;20044;-70
2023/01/03 10:48:54;;;;;;;3.67;2.35;;;;;;;17.81;52.22;101637.63;5073423;28;20028;-70
2023/01/03 10:51:45;;;;;;;10.95;2.92;;;;;;;17.69;52.43;101643.63;5074055;28;20041;-70
2023/01/03 10:54:16;;;;;;;4.53;2.30;;;;;;;18.43;50.05;101638.97;5073974;28;20100;-70
2023/01/03 10:56:43;;;;;;;3.20;2.63;;;;;;;18.45;49.18;101634.22;5073773;28;20036;-70
2023/01/03 10:59:17;;;;;;;2.75;1.90;;;;;;;18.99;48.45;101633.72;5073382;28;20044;-71
2023/01/03 11:02:01;;;;;;;5.18;2.00;;;;;;;18.70;47.53;101632.84;5073804;28;20029;-70
2023/01/03 11:04:31;;;;;;;4.22;1.80;;;;;;;19.00;47.84;101632.69;5073544;28;20036;-70
2023/01/03 11:07:03;;;;;;;3.17;2.30;;;;;;;19.12;47.24;101633.84;5073311;28;20037;-71
2023/01/03 11:09:53;;;;;;;3.92;1.85;;;;;;;18.57;49.35;101624.59;5073577;28;20508;-71
2023/01/03 11:12:25;;;;;;;3.47;1.85;;;;;;;18.67;48.24;101629.72;5073005;28;20059;-71
2023/01/03 11:14:54;;;;;;;3.55;1.70;;;;;;;18.42;49.13;101621.13;5073547;28;20033;-71
2023/01/03 11:17:22;;;;;;;4.68;1.65;;;;;;;18.21;49.03;101619.25;5072987;28;20037;-70
2023/01/03 11:19:48;;;;;;;2.03;1.33;;;;;;;19.11;48.23;101618.66;5073264;28;20064;-70
2023/01/03 11:22:32;;;;;;;3.03;1.90;;;;;;;18.67;48.02;101625.13;5073323;28;20040;-69
2023/01/03 11:25:43;;;;;;;3.95;1.48;;;;;;;18.58;48.24;101617.31;5073120;28;20036;-70
2023/01/03 11:28:48;;;;;;;1.38;1.00;;;;;;;19.74;45.13;101619.50;5071472;28;20082;-70
2023/01/03 11:31:29;;;;;;;2.72;1.20;;;;;;;18.68;47.79;101620.56;5072946;28;20068;-70
2023/01/03 11:34:06;;;;;;;2.63;1.55;;;;;;;17.63;49.80;101619.09;5096595;22;20052;-67
2023/01/03 11:36:40;;;;;;;1.70;1.20;;;;;;;18.21;48.37;101616.53;5073689;28;20047;-68
2023/01/03 11:39:18;;;;;;;1.38;0.90;;;;;;;18.31;49.07;101605.44;5073287;28;20044;-68
2023/01/03 11:42:06;;;;;;;1.30;0.90;;;;;;;18.27;47.59;101604.16;5073325;28;20037;-68
2023/01/03 11:44:44;;;;;;;1.88;1.23;;;;;;;18.34;48.60;101602.38;5073077;28;20398;-68
2023/01/03 11:47:43;;;;;;;4.72;2.05;;;;;;;18.81;47.31;101599.09;5072949;28;20040;-67
2023/01/03 11:50:11;;;;;;;1.63;1.40;;;;;;;18.90;46.81;101600.63;5074449;28;20085;-68
2023/01/03 11:52:53;;;;;;;1.35;1.08;;;;;;;19.37;46.04;101595.56;5074028;28;20093;-68
2023/01/03 11:55:54;;;;;;;2.22;1.10;;;;;;;19.72;46.18;101586.44;5073342;28;20036;-68
2023/01/03 11:58:50;;;;;;;1.00;0.90;;;;;;;19.51;45.86;101589.22;5072624;28;20043;-69
2023/01/03 12:01:25;;;;;;;1.67;0.90;;;;;;;19.53;45.02;101597.94;5072898;28;20028;-69
2023/01/03 12:03:57;;;;;;;1.58;1.08;;;;;;;19.10;45.96;101591.84;5073384;28;20043;-68
2023/01/03 12:06:48;;;;;;;1.23;0.90;;;;;;;19.05;45.26;101584.34;5072905;28;20044;-69
2023/01/03 12:09:37;;;;;;;2.15;0.90;;;;;;;18.91;45.30;101582.59;5072532;28;20045;-68
2023/01/03 12:12:24;;;;;;;3.08;0.90;;;;;;;19.11;44.82;101586.25;5072775;28;20032;-69
2023/01/03 12:15:22;;;;;;;;;;;;;;;19.17;44.36;101587.31;5073035;28;20043;-69
2023/01/03 12:17:55;;;;;;;1.13;0.85;;;;;;;19.21;44.71;101584.03;5038359;28;20035;-68
2023/01/03 12:20:25;;;;;;;1.02;0.90;;;;;;;18.40;45.68;101578.16;5072662;28;20401;-68
2023/01/03 12:23:14;;;;;;;2.17;0.85;;;;;;;17.69;48.52;101573.56;5072457;28;20040;-69
2023/01/03 12:25:49;;;;;;;1.05;0.70;;;;;;;17.08;48.42;101571.91;5072203;28;20409;-68
2023/01/03 12:28:26;;;;;;;1.83;0.80;;;;;;;16.84;49.58;101569.44;5072113;28;20036;-68
2023/01/03 12:31:04;;;;;;;0.85;0.65;;;;;;;17.06;51.13;101565.84;5066055;28;20037;-68
2023/01/03 12:33:47;;;;;;;1.95;0.70;;;;;;;17.20;48.87;101568.75;5062549;28;20029;-69
2023/01/03 12:36:21;;;;;;;1.27;0.80;;;;;;;16.97;49.70;101566.13;5062921;28;20390;-68
2023/01/03 12:39:13;;;;;;;1.17;0.70;;;;;;;16.21;51.96;101570.59;5061649;28;20033;-69
2023/01/03 12:41:50;;;;;;;1.50;0.73;;;;;;;16.89;51.53;101561.69;5042778;28;20033;-69
2023/01/03 12:44:29;;;;;;;2.80;0.82;;;;;;;16.50;51.21;101561.81;5060620;28;20033;-70
2023/01/03 12:46:55;;;;;;;0.70;0.50;;;;;;;16.00;52.17;101560.47;5060423;28;20037;-67
2023/01/03 12:49:47;;;;;;;0.85;0.57;;;;;;;15.29;54.96;101573.00;5062149;28;20036;-68
2023/01/03 12:52:15;;;;;;;1.73;0.65;;;;;;;15.22;54.83;101563.13;5062428;28;20029;-68
2023/01/03 12:55:07;;;;;;;0.57;0.57;;;;;;;15.37;53.83;101556.00;5060873;28;20371;-68
2023/01/03 12:58:02;;;;;;;1.58;0.88;;;;;;;14.61;56.29;101554.66;5062326;28;20040;-69
2023/01/03 13:00:46;;;;;;;3.35;0.98;;;;;;;14.43;56.71;101551.25;5061307;28;20028;-69
2023/01/03 13:03:24;;;;;;;2.03;1.10;;;;;;;14.39;58.01;101548.91;5062288;28;20028;-70
2023/01/03 13:05:52;;;;;;;;;;;;;;;14.15;58.19;101548.03;5062356;28;20029;-69
2023/01/03 13:08:43;;;;;;;2.38;1.38;;;;;;;14.12;58.32;101544.69;5060006;28;19908;-70
2023/01/03 13:11:29;;;;;;;2.78;1.48;;;;;;;14.47;58.32;101542.72;5061820;28;20044;-70
2023/01/03 13:14:16;;;;;;;2.03;1.10;;;;;;;14.63;58.92;101539.22;5062296;28;20107;-70
2023/01/03 13:16:45;;;;;;;2.45;1.55;;;;;;;14.46;57.03;101543.75;5044286;28;20112;-70
2023/01/03 13:19:23;;;;;;;3.40;1.23;;;;;;;14.32;57.01;101541.69;5061447;28;20036;-69
2023/01/03 13:21:51;;;;;;;1.48;1.13;;;;;;;14.10;57.96;101530.63;5063811;28;20033;-70
2023/01/03 13:24:50;;;;;;;1.27;0.95;;;;;;;14.23;57.01;101535.50;5061321;28;20028;-68
2023/01/03 13:27:21;;;;;;;1.10;0.73;;;;;;;13.85;58.10;101531.56;5006453;28;20068;-69
2023/01/03 13:29:49;;;;;;;1.85;0.85;;;;;;;13.77;59.02;101528.88;5061494;28;20401;-69
2023/01/03 13:32:21;;;;;;;1.63;0.82;;;;;;;13.38;59.87;101532.09;5066134;28;20070;-69
2023/01/03 13:34:52;;;;;;;2.47;0.95;;;;;;;13.38;60.85;101528.56;5072204;28;20064;-70
2023/01/03 13:37:23;;;;;;;0.70;0.68;;;;;;;13.53;60.74;101530.47;5056882;28;20116;-68
2023/01/03 13:39:48;;;;;;;1.35;0.70;;;;;;;13.32;61.88;101534.56;5073113;28;20051;-69
2023/01/03 13:42:32;;;;;;;1.40;0.98;;;;;;;13.39;61.22;101530.25;5073666;28;20032;-70
2023/01/03 13:45:09;;;;;;;0.75;0.75;;;;;;;13.44;62.64;101527.94;5076931;28;20075;-69
2023/01/03 13:47:40;;;;;;;1.67;0.88;;;;;;;13.53;61.97;101526.94;5076196;28;20037;-68
2023/01/03 13:50:36;;;;;;;1.63;1.00;;;;;;;13.59;60.68;101531.66;5076533;28;20041;-69
2023/01/03 13:53:10;;;;;;;0.50;0.50;;;;;;;13.51;61.11;101532.47;5059602;28;20052;-69
2023/01/03 13:55:46;;;;;;;1.33;0.68;;;;;;;13.71;61.05;101527.69;5075595;28;20045;-68
2023/01/03 13:58:23;;;;;;;2.60;0.57;;;;;;;13.70;61.18;101523.34;5056189;28;20466;-68
2023/01/03 14:00:51;;;;;;;1.15;0.80;;;;;;;13.70;60.26;101517.97;5056746;28;20036;-69
2023/01/03 14:03:25;;;;;;;;;;;;;;;13.28;61.54;101534.88;5055888;28;20043;-69
2023/01/03 14:06:03;;;;;;;0.85;0.80;;;;;;;13.17;62.52;101526.22;5055066;28;19920;-71
2023/01/03 14:08:51;;;;;;;3.05;1.17;;;;;;;12.98;63.69;101530.84;5055600;28;20115;-68
2023/01/03 14:11:48;;;;;;;0.50;0.50;;;;;;;12.93;64.48;101532.31;5054899;28;20040;-68
2023/01/03 14:14:16;;;;;;;1.02;0.80;;;;;;;12.65;66.51;101534.25;5055742;28;20112;-69
2023/01/03 14:16:49;;;;;;;1.35;1.00;;;;;;;12.56;67.95;101527.19;5055030;28;20044;-68
2023/01/03 14:19:22;;;;;;;0.80;0.70;;;;;;;12.56;67.87;101533.38;5054876;28;20037;-69
2023/01/03 14:22:01;;;;;;;1.98;1.08;;;;;;;12.57;68.38;101540.38;5054785;28;20033;-68
2023/01/03 14:24:32;;;;;;;1.08;0.63;;;;;;;12.39;69.03;101532.41;5054583;28;20101;-68
2023/01/03 14:27:05;;;;;;;1.25;1.02;;;;;;;12.54;69.36;101523.84;5054599;28;20540;-69
2023/01/03 14:29:35;;;;;;;1.92;1.10;;;;;;;12.29;70.26;101531.63;5054608;28;20044;-68
2023/01/03 14:32:01;;;;;;;2.13;0.77;;;;;;;12.22;69.89;101531.41;5054778;28;20124;-67
2023/01/03 14:34:30;;;;;;;2.63;0.90;;;;;;;12.13;70.05;101535.00;5036320;28;20033;-67
2023/01/03 14:37:00;;;;;;;2.08;1.15;;;;;;;12.10;71.12;101531.78;5054159;28;20033;-70
2023/01/03 14:39:31;;;;;;;3.55;1.10;;;;;;;11.98;71.78;101533.84;5054255;28;20094;-69
2023/01/03 14:42:01;;;;;;;1.35;1.00;;;;;;;11.82;72.54;101539.00;5054503;28;20044;-68
2023/01/03 14:44:28;;;;;;;3.70;0.80;;;;;;;11.63;73.64;101538.09;5054250;28;20091;-68
2023/01/03 14:47:03;;;;;;;6.65;0.85;;;;;;;11.57;73.11;101540.53;5036920;28;20064;-69
2023/01/03 14:49:43;;;;;;;1.48;0.77;;;;;;;11.49;74.36;101532.41;5054052;28;20040;-69
2023/01/03 14:52:30;;;;;;;0.60;0.60;;;;;;;11.34;75.75;101537.38;5036106;28;20075;-68
2023/01/03 14:54:57;;;;;;;1.67;0.90;;;;;;;11.35;75.76;101539.94;5053419;28;20406;-70
2023/01/03 14:57:24;;;;;;;1.20;0.68;;;;;;;11.27;75.18;101536.28;5035900;28;20114;-70
2023/01/03 14:59:52;;;;;;;1.52;0.77;;;;;;;11.20;76.15;101536.03;5036788;28;20071;-70
2023/01/03 15:02:18;;;;;;;2.40;0.82;;;;;;;11.13;75.75;101537.59;5038084;28;20028;-69
2023/01/03 15:04:51;;;;;;;1.05;0.82;;;;;;;11.06;76.79;101533.84;5036052;28;20041;-70
2023/01/03 15:07:33;;;;;;;1.27;0.88;;;;;;;11.00;77.33;101532.59;5053579;28;20025;-70
2023/01/03 15:10:10;;;;;;;0.93;0.60;;;;;;;10.92;78.00;101535.16;5035859;28;20029;-69
2023/01/03 15:12:48;;;;;;;0.98;0.63;;;;;;;10.87;78.38;101540.06;5035708;28;20040;-69
2023/01/03 15:15:18;;;;;;;1.60;1.08;;;;;;;10.79;79.57;101545.28;5035822;28;20433;-68
2023/01/03 15:17:47;;;;;;;6.03;1.80;;;;;;;10.75;79.65;101555.38;5053433;28;20041;-69
2023/01/03 15:20:17;;;;;;;3.15;1.70;;;;;;;10.72;80.11;101553.00;5053793;28;20029;-68
2023/01/03 15:22:43;;;;;;;4.22;2.00;;;;;;;10.59;80.75;101545.31;5053714;28;20041;-67
2023/01/03 15:25:18;;;;;;;4.95;1.48;;;;;;;10.54;81.46;101546.72;5035485;28;20116;-65
2023/01/03 15:27:47;;;;;;;2.75;1.55;;;;;;;10.56;81.51;101561.59;5035242;28;20099;-68
2023/01/03 15:30:13;;;;;;;2.05;1.10;;;;;;;10.42;82.99;101548.66;5053406;28;20110;-68
2023/01/03 15:33:03;;;;;;;2.03;1.25;;;;;;;10.38;82.83;101554.44;5053278;28;20045;-68
2023/01/03 15:35:41;;;;;;;1.52;1.05;;;;;;;10.35;83.11;101554.69;5018953;28;20036;-68
2023/01/03 15:38:22;;;;;;;1.92;1.48;;;;;;;10.35;83.72;101568.03;5052929;28;20095;-68
2023/01/03 15:40:49;;;;;;;5.75;1.50;;;;;;;10.27;84.31;101560.72;5053312;28;20072;-66
2023/01/03 15:43:23;;;;;;;3.65;1.17;;;;;;;10.17;84.77;101566.03;5035319;28;20131;-69
2023/01/03 15:46:17;;;;;;;3.58;1.40;;;;;;;10.11;85.35;101566.59;5035208;28;20127;-67
2023/01/03 15:48:54;;;;;;;1.42;1.30;;;;;;;10.01;85.74;101571.88;5034937;28;20056;-67
2023/01/03 15:51:19;;;;;;;1.75;1.25;;;;;;;9.95;87.17;101566.25;5035037;28;20033;-66
2023/01/03 15:53:45;;;;;;;2.95;1.85;;;;;;;9.85;87.32;101568.91;5052901;28;20032;-67
2023/01/03 15:56:19;;;;;;;8.75;2.83;;;;;;;9.81;87.41;101572.81;5052835;28;20430;-67
2023/01/03 15:58:47;;;;;;;5.55;2.45;;;;;;;9.75;88.07;101571.53;5052677;28;20041;-69
2023/01/03 16:01:12;;;;;;;4.60;2.28;;;;;;;9.70;88.23;101578.25;5052824;28;20021;-67
2023/01/03 16:03:38;;;;;;;3.67;1.98;;;;;;;9.60;88.58;101574.72;5052593;28;20051;-68
2023/01/03 16:06:04;;;;;;;7.38;2.72;;;;;;;9.52;88.83;101573.56;5051886;28;20037;-65
2023/01/03 16:08:48;;;;;;;1.65;1.42;;;;;;;9.39;89.05;101575.63;5052253;28;20127;-68
2023/01/03 16:11:25;;;;;;;3.30;1.95;;;;;;;9.21;90.06;101571.88;5034654;28;20383;-66
2023/01/03 16:13:54;;;;;;;2.08;1.60;;;;;;;9.14;90.60;101592.00;5052413;28;20045;-66
2023/01/03 16:16:25;;;;;;;1.95;1.23;;;;;;;9.00;91.58;101581.69;5052426;28;20033;-66
2023/01/03 16:18:51;;;;;;;2.40;1.45;;;;;;;8.90;91.63;101587.78;5052067;28;20033;-66
2023/01/03 16:21:18;;;;;;;2.10;1.45;;;;;;;8.76;91.89;101582.81;5052286;28;20040;-66
2023/01/03 16:23:43;;;;;;;1.27;1.02;;;;;;;8.79;92.62;101574.56;5052318;28;20409;-54
2023/01/03 16:26:09;;;;;;;3.63;1.80;;;;;;;8.67;92.97;101581.78;5052386;28;20041;-66
2023/01/03 16:28:34;;;;;;;1.80;1.23;;;;;;;8.46;92.89;101583.53;5051991;28;20087;-67
2023/01/03 16:31:12;;;;;;;2.53;1.50;;;;;;;8.29;94.16;101579.59;5052088;28;20064;-67
2023/01/03 16:33:40;;;;;;;3.17;1.75;;;;;;;8.24;95.33;101584.44;5051715;28;20041;-67
2023/01/03 16:36:16;;;;;;;;;;;;;;;8.20;95.81;101590.13;5052442;28;20045;-68
2023/01/03 16:38:42;;;;;;;3.45;1.40;;;;;;;8.10;96.39;101590.88;5051698;28;20004;-67
2023/01/03 16:41:07;;;;;;;1.73;1.23;;;;;;;8.03;96.81;101591.50;5051964;28;20056;-66
2023/01/03 16:43:33;;;;;;;1.70;1.10;;;;;;;7.93;97.65;101595.84;5052118;28;20074;-66
2023/01/03 16:45:58;;;;;;;2.40;1.27;;;;;;;7.85;98.06;101599.97;5051887;28;20048;-66
2023/01/03 16:48:27;;;;;;;2.33;1.40;;;;;;;7.85;98.55;101597.31;5051400;28;20086;-67
2023/01/03 16:50:53;;;;;;;2.58;1.20;;;;;;;7.81;98.29;101598.50;5051488;28;20040;-67
2023/01/03 16:53:35;;;;;;;1.65;1.27;;;;;;;7.71;98.90;101596.75;5051807;28;20102;-66
2023/01/03 16:56:01;;;;;;;1.45;1.23;;;;;;;7.77;99.23;101599.75;5051690;28;20037;-68
2023/01/03 16:58:27;;;;;;;1.27;1.15;;;;;;;7.71;99.33;101607.34;5051380;28;20036;-67
2023/01/03 17:00:52;;;;;;;2.60;1.17;;;;;;;7.62;99.42;101607.09;5051690;28;20050;-67
2023/01/03 17:03:18;;;;;;;4.43;2.47;;;;;;;7.59;99.70;101603.84;5051785;28;20048;-66
2023/01/03 17:05:44;;;;;;;9.65;4.15;;;;;;;7.52;100.00;101608.78;5051296;28;20494;-66
2023/01/03 17:08:22;;;;;;;4.82;2.55;;;;;;;7.43;100.00;101616.59;5051549;28;20091;-66
2023/01/03 17:10:53;;;;;;;1.95;1.35;;;;;;;7.38;100.00;101619.63;5051397;28;20466;-67
2023/01/03 17:13:33;;;;;;;2.58;1.58;;;;;;;7.31;100.00;101613.97;5051562;28;20028;-67
2023/01/03 17:16:01;;;;;;;2.97;1.77;;;;;;;7.17;100.00;101614.19;5051511;28;20497;-67
2023/01/03 17:18:30;;;;;;;4.85;1.90;;;;;;;7.22;100.00;101614.66;5051082;28;20482;-66
2023/01/03 17:20:59;;;;;;;2.63;1.30;;;;;;;7.06;100.00;101608.88;5051715;28;20037;-67
2023/01/03 17:23:31;;;;;;;1.20;1.02;;;;;;;6.92;100.00;101611.72;5051860;28;20036;-67
2023/01/03 17:25:56;;;;;;;2.95;1.33;;;;;;;6.85;100.00;101613.16;5051431;28;20128;-65
2023/01/03 17:28:22;;;;;;;5.90;1.65;;;;;;;6.82;100.00;101600.13;5051257;28;20063;-66
2023/01/03 17:30:49;;;;;;;2.03;1.15;;;;;;;6.78;100.00;101607.44;5051369;28;20086;-67
2023/01/03 17:33:15;;;;;;;1.30;1.00;;;;;;;6.64;100.00;101595.25;5051627;28;20075;-67
2023/01/03 17:35:43;;;;;;;1.42;1.00;;;;;;;6.59;100.00;101604.53;5118960;22;20122;-66
2023/01/03 17:38:15;;;;;;;2.13;1.40;;;;;;;6.44;100.00;101599.38;5093057;28;20205;-68
2023/01/03 17:40:45;;;;;;;2.03;1.30;;;;;;;6.42;100.00;101611.91;5111758;28;20027;-65